Tiempo atmosférico en la estación meteorológica de Valverde del Fresno, Cáceres (498 m.)



Fecha
DESCASC
Temp. máxima en grados centígrados (hora)
DESCASC
Temp. mínima en grados centígrados (hora)
DESCASC
Temp. media en grados centígrados
DESCASC
Racha de viento máxima en m/sg (hora)
DESCASC
Velocidad máxima media en intervalos de 10 minutos(hora)
DESCASC
Precipitaciones diarias en mm
DESCASC
Precipitaciones de 00:00 a 06:00 en mm
DESCASC
Precipitaciones de 06:00 a 12:00 en mm
DESCASC
Precipitaciones de 12:00 a 18:00 en mm
DESCASC
Precipitaciones de 18:00 a 24:00 en mm
DESCASC
28-02-2021 15.7 (15:20) 4.8 (07:10) 10.3 7.5 (12:20) 4.72 (12:30) 0 0 0 0 0
27-02-2021 18.7 (15:50) 5.8 (08:20) 12.3 9.17 (21:50) 6.11 (22:20) 0 0 0 0 0
26-02-2021 16.4 (15:20) 7.6 (07:40) 12 9.44 (21:00) 5.83 (21:00) 0 0 0 0 0
25-02-2021 13 (16:10) 8.9 (00:00) 10.9 6.11 (16:00) 3.89 (16:00) 5.4 0.2 5 0 0.2
24-02-2021 16.6 (16:40) 7.5 (00:00) 12.1 11.11 (15:50) 5.83 (17:30) 0 0 0 0 0
23-02-2021 14.9 (17:20) 2.4 (00:00) 8.6 8.89 (15:00) 5.83 (13:00) 0 0 0 0 0
22-02-2021 14 (16:40) 1.5 (00:00) 7.8 5.83 (16:10) 3.33 (17:50) 0 0 0 0 0
21-02-2021 13.8 (00:50) 5.3 (00:00) 9.6 15.56 (05:10) 8.61 (05:50) 5 0.6 4.4 0 0
20-02-2021 13.8 (21:30) 8.9 (00:00) 11.3 13.89 (22:10) 7.5 (20:10) 0 0 0 0 0
19-02-2021 13.7 (13:50) 7.6 (00:00) 10.6 9.17 (21:40) 5.28 (20:10) 0 0 0 0 0
18-02-2021 14.2 (15:10) 9.3 (00:00) 11.8 6.67 (16:00) 4.17 (15:30) 3.6 0 0 3.6 0
17-02-2021 15.9 (16:10) 9.8 (00:00) 12.8 5.28 (14:20) 3.33 (14:20) 0.2 0 0 0.2 0
16-02-2021 12.4 (00:00) 6 (00:00) 9.2 5.56 (00:40) 2.78 (00:40) 0.4 0 0 0 0.4
15-02-2021 16.4 (16:40) 8 (00:00) 12.2 10.56 (13:40) 5.28 (13:10) 0 0 0 0 0
14-02-2021 17.6 (16:40) 4.6 (00:00) 11.1 6.67 (12:40) 4.17 (12:40) 0 0 0 0 0
13-02-2021 17.8 (17:40) 5.3 (00:00) 11.5 3.61 (20:30) 3.06 (20:30) 0 0 0 0 0
12-02-2021 16.7 (16:10) 6.4 (00:00) 11.6 8.89 (13:40) 5 (13:40) 1.4 1.4 0 0 0
11-02-2021 13.8 (17:10) 10.3 (00:00) 12.1 7.5 (21:40) 3.89 (15:20) 9.2 1.4 4.4 0.8 2.6
10-02-2021 14.9 (15:00) 4.8 (00:00) 9.8 8.33 (02:00) 4.44 (02:10) 3.4 2.6 0 0 0.8
09-02-2021 11.7 (16:10) 6.6 (00:00) 9.1 13.61 (10:20) 6.94 (10:40) 26 3.8 19.4 2 0.8
08-02-2021 11.9 (14:40) 5.7 (00:00) 8.8 12.5 (11:40) 6.11 (14:30) 17.4 11.6 5.6 0.2 0
07-02-2021 9.8 (13:00) 4.3 (00:00) 7.1 9.72 (00:10) 5 (03:10) 13.8 0 0 0.6 13.2
06-02-2021 10.9 (13:00) 7.4 (00:00) 9.1 10.28 (23:50) 5 (22:40) 4 1.6 0.6 1.8 0
05-02-2021 10.2 (09:10) 7.6 (00:00) 8.9 8.89 (08:30) 4.72 (08:30) 23 4.2 3.6 10.8 4.4
04-02-2021 10.2 (00:00) 7.7 (00:00) 8.9 3.89 (09:10) 2.5 (10:20) 20.4 0.4 15.2 4 0.8
03-02-2021 12.2 (15:20) 9.5 (00:00) 10.8 5.28 (11:40) 3.33 (11:40) 17.8 6 5.4 5 1.4
02-02-2021 12.1 (13:10) 9.9 (00:00) 11 7.78 (14:30) 4.72 (14:30) 3 2 0.2 0.6 0.2
01-02-2021 16 (16:10) 4.9 (00:00) 10.5 6.67 (16:30) 4.17 (16:30) 0.4 0 0 0 0.4
31-01-2021 15.2 (18:10) 5.8 (00:00) 10.5 4.44 (00:10) 2.5 (03:00) 1 0 0.6 0.4 0
30-01-2021 14.3 (14:00) 6.8 (00:00) 10.6 11.11 (14:30) 6.67 (14:30) 5 5 0 0 0

Gráficas

Temp. máximas Temp. mínimas Temp. medias Precipitaciones Rachas de viento máximas Velocidades máximas media en intervalos de 10 minutos

Datos horarios

Fecha y hora oficial Temperatura (ºC) Velocidad del viento (km/h) Dirección del viento Racha (km/h) Dirección de racha Precipitación (mm) Presión (hPa) Tendencia (hPa) Humedad (%)
2021-02-28 23:00:00 9.8 8 Norte 10 Norte 0 -- -- 81
2021-02-28 22:00:00 9.8 3 Norte 10 Norte 0 -- -- 80
2021-02-28 21:00:00 10 3 Norte 10 Norte 0 -- -- 77
2021-02-28 20:00:00 10.5 6 Norte 10 Norte 0 -- -- 76
2021-02-28 19:00:00 13.6 6 Sudeste 15 Sudeste 0 -- -- 62
2021-02-28 18:00:00 15 9 Sudeste 16 Sudeste 0 -- -- 58
2021-02-28 17:00:00 15.6 9 Sudeste 20 Sudeste 0 -- -- 54
2021-02-28 16:00:00 15.6 12 Sudeste 21 Sur 0 -- -- 54
2021-02-28 15:00:00 15.3 13 Sudeste 22 Sudeste 0 -- -- 56
2021-02-28 14:00:00 14.9 14 Sudeste 26 Sudeste 0 -- -- 54
2021-02-28 13:00:00 14.5 13 Sudeste 27 Sudeste 0 -- -- 57
2021-02-28 12:00:00 13.7 14 Sudeste 25 Sudeste 0 -- -- 59
2021-02-28 11:00:00 13.3 12 Sudeste 24 Sudeste 0 -- -- 59
2021-02-28 10:00:00 9.6 3 Sur 7 Este 0 -- -- 76
2021-02-28 09:00:00 5.6 5 Nordeste 8 Noroeste 0 -- -- 90
2021-02-28 08:00:00 6 5 Norte 10 Norte 0 -- -- 85
2021-02-28 07:00:00 5.5 2 Sudoeste 6 Noroeste 0 -- -- 85
2021-02-28 06:00:00 6.8 4 Norte 7 Norte 0 -- -- 82
2021-02-28 05:00:00 7.4 0 Calma 9 Noroeste 0 -- -- 80
2021-02-28 04:00:00 8.7 0 Calma 8 Norte 0 -- -- 74
2021-02-28 03:00:00 9.3 6 Norte 8 Noroeste 0 -- -- 73
2021-02-28 02:00:00 9.9 0 Calma 10 Noroeste 0 -- -- 72
2021-02-28 01:00:00 10.3 4 Nordeste 14 Norte 0 -- -- 72
2021-02-28 00:00:00 12.8 10 Nordeste 19 Nordeste 0 -- -- 63
2021-02-27 23:00:00 13.9 12 Norte 32 Nordeste 0 -- -- 59
2021-02-27 22:00:00 14.2 17 Este 33 Nordeste 0 -- -- 60
2021-02-27 21:00:00 14.2 10 Nordeste 22 Norte 0 -- -- 60
2021-02-27 20:00:00 15 14 Nordeste 27 Norte 0 -- -- 58
2021-02-27 19:00:00 16.3 8 Nordeste 31 Nordeste 0 -- -- 54
2021-02-27 18:00:00 17.9 12 Norte 31 Nordeste 0 -- -- 47
2021-02-27 17:00:00 18.1 14 Nordeste 31 Nordeste 0 -- -- 52
2021-02-27 16:00:00 18.6 13 Nordeste 26 Nordeste 0 -- -- 51
2021-02-27 15:00:00 18.1 9 Nordeste 21 Nordeste 0 -- -- 51
2021-02-27 14:00:00 17.3 12 Nordeste 23 Nordeste 0 -- -- 54
2021-02-27 13:00:00 17.1 3 Nordeste 7 Sudoeste 0 -- -- 59
2021-02-27 12:00:00 15.4 3 Sudoeste 9 Sudoeste 0 -- -- 64
2021-02-27 11:00:00 13.4 3 Sur 5 Sur 0 -- -- 76
2021-02-27 10:00:00 10.5 0 Calma 3 Este 0 -- -- 87
2021-02-27 09:00:00 8.1 0 Calma 7 Norte 0 -- -- 94
2021-02-27 08:00:00 6.2 3 Sudoeste 11 Norte 0 -- -- 94
2021-02-27 07:00:00 6.9 5 Norte 10 Norte 0 -- -- 95
2021-02-27 06:00:00 6.6 4 Oeste 5 Oeste 0 -- -- 93
2021-02-27 05:00:00 8 3 Noroeste 6 Noroeste 0 -- -- 88
2021-02-27 04:00:00 8.7 8 Norte 10 Norte 0 -- -- 89
2021-02-27 03:00:00 8.8 6 Norte 14 Norte 0 -- -- 90
2021-02-27 02:00:00 9.4 12 Norte 12 Norte 0 -- -- 89
2021-02-27 01:00:00 9.4 6 Nordeste 10 Norte 0 -- -- 90
2021-02-27 00:00:00 10.2 5 Norte 9 Sudoeste 0 -- -- 86
2021-02-26 23:00:00 12.1 6 Oeste 10 Sudoeste 0 -- -- 78
2021-02-26 22:00:00 14.2 9 Nordeste 31 Nordeste 0 -- -- 66
2021-02-26 21:00:00 14.6 21 Nordeste 34 Nordeste 0 -- -- 62
2021-02-26 20:00:00 13.6 8 Este 17 Este 0 -- -- 69
2021-02-26 19:00:00 13.3 0 Calma 4 Oeste 0 -- -- 82
2021-02-26 18:00:00 14.2 3 Sudoeste 8 Sudoeste 0 -- -- 78
2021-02-26 17:00:00 14.7 5 Sudoeste 13 Sudoeste 0 -- -- 72
2021-02-26 16:00:00 15.5 9 Sudoeste 13 Sudoeste 0 -- -- 69
2021-02-26 15:00:00 15.8 4 Sur 6 Sur 0 -- -- 68
2021-02-26 14:00:00 14.4 4 Sur 10 Sudeste 0 -- -- 70
2021-02-26 13:00:00 14.2 2 Sur 8 Sur 0 -- -- 72
2021-02-26 12:00:00 13.7 3 Sudeste 12 Noroeste 0 -- -- 72
2021-02-26 11:00:00 11.9 4 Noroeste 14 Noroeste 0 -- -- 79
2021-02-26 10:00:00 10.8 4 Oeste 10 Oeste 0 -- -- 85
2021-02-26 09:00:00 9.2 0 Calma 10 Noroeste 0 -- -- 86
2021-02-26 08:00:00 8 10 Norte 12 Norte 0 -- -- 92
2021-02-26 07:00:00 7.9 5 Norte 9 Norte 0 -- -- 91
2021-02-26 06:00:00 9.3 4 Noroeste 8 Oeste 0 -- -- 86
2021-02-26 05:00:00 10.6 4 Noroeste 9 Sudoeste 0 -- -- 79
2021-02-26 04:00:00 11.7 3 Sur 9 Sudeste 0 -- -- 73
2021-02-26 03:00:00 11.8 4 Este 6 Este 0 -- -- 73
2021-02-26 02:00:00 11.5 0 Calma 7 Este 0 -- -- 78
2021-02-26 01:00:00 10.9 3 Noroeste 6 Noroeste 0 -- -- 81
2021-02-26 00:00:00 10.8 3 Nordeste 11 Norte 0 -- -- 84
2021-02-25 23:00:00 9.8 6 Nordeste 15 Norte 0.2 -- -- 93
2021-02-25 22:00:00 10.7 8 Norte 14 Noroeste 0 -- -- 87
2021-02-25 21:00:00 11.7 9 Este 17 Este 0 -- -- 76
2021-02-25 20:00:00 11.5 4 Sudeste 17 Este 0 -- -- 76
2021-02-25 19:00:00 12.2 3 Este 13 Este 0 -- -- 75
2021-02-25 18:00:00 12.7 5 Este 15 Sudeste 0 -- -- 76
2021-02-25 17:00:00 12.8 8 Este 22 Sudeste 0 -- -- 74
2021-02-25 16:00:00 12.9 14 Sudeste 22 Sur 0 -- -- 75
2021-02-25 15:00:00 11.1 4 Noroeste 18 Este 0 -- -- 82
2021-02-25 14:00:00 10.8 5 Este 14 Este 0 -- -- 81
2021-02-25 13:00:00 9.9 6 Este 19 Nordeste 0 -- -- 84
2021-02-25 12:00:00 9.3 8 Nordeste 12 Nordeste 0.4 -- -- 89
2021-02-25 11:00:00 9.6 4 Noroeste 10 Sur 0 -- -- 88
2021-02-25 10:00:00 9.5 5 Nordeste 12 Nordeste 0 -- -- 87
2021-02-25 09:00:00 9.2 2 Sudeste 10 Este 0.2 -- -- 89
2021-02-25 08:00:00 9 6 Nordeste 13 Nordeste 3 -- -- 92
2021-02-25 07:00:00 9.8 5 Noroeste 13 Nordeste 1.4 -- -- 87
2021-02-25 06:00:00 10.7 5 Nordeste 16 Este 0.2 -- -- 81
2021-02-25 05:00:00 11.4 6 Sudeste 14 Sudeste 0 -- -- 76
2021-02-25 04:00:00 11.7 4 Sur 14 Este 0 -- -- 78
2021-02-25 03:00:00 11.8 9 Este 14 Este 0 -- -- 77
2021-02-25 02:00:00 12.2 3 Sur 6 Oeste 0 -- -- 77
2021-02-25 01:00:00 12.4 0 Calma 13 Sudeste 0 -- -- 75
2021-02-25 00:00:00 12.7 0 Calma 7 Oeste 0 -- -- 75
2021-02-24 23:00:00 13.3 0 Calma 20 Sudeste 0 -- -- 72
2021-02-24 22:00:00 13.7 10 Sudeste 22 Este 0 -- -- 69
2021-02-24 21:00:00 13.1 0 Calma 5 Sudoeste 0 -- -- 72
2021-02-24 20:00:00 13.8 2 Sudeste 11 Sudeste 0 -- -- 67
2021-02-24 19:00:00 14.5 9 Sudeste 26 Sur 0 -- -- 65
2021-02-24 18:00:00 15.9 19 Sur 30 Sur 0 -- -- 57
2021-02-24 17:00:00 16.4 19 Sudeste 31 Sur 0 -- -- 57
2021-02-24 16:00:00 16.4 18 Sur 40 Sudeste 0 -- -- 58
2021-02-24 15:00:00 16 16 Sudeste 33 Este 0 -- -- 62
2021-02-24 14:00:00 15.2 16 Sudeste 39 Sudeste 0 -- -- 63
2021-02-24 13:00:00 14.2 18 Sudeste 36 Sudeste 0 -- -- 63
2021-02-24 12:00:00 13.4 15 Sudeste 31 Sudeste 0 -- -- 65
2021-02-24 11:00:00 11.9 18 Sudeste 32 Sudeste 0 -- -- 66
2021-02-24 10:00:00 10.5 15 Sudeste 27 Sudeste 0 -- -- 72
2021-02-24 09:00:00 8.9 12 Sudeste 24 Sudeste 0 -- -- 76
2021-02-24 08:00:00 8.4 10 Sudeste 23 Sudeste 0 -- -- 75
2021-02-24 07:00:00 8.9 14 Sudeste 26 Sudeste 0 -- -- 74
2021-02-24 06:00:00 8.1 7 Sudeste 18 Sudeste 0 -- -- 78
2021-02-24 05:00:00 7.6 4 Oeste 24 Sudeste 0 -- -- 79
2021-02-24 04:00:00 9.3 9 Sudeste 25 Este 0 -- -- 73
2021-02-24 03:00:00 9.9 13 Sudeste 32 Este 0 -- -- 70
2021-02-24 02:00:00 10.7 17 Sudeste 32 Sudeste 0 -- -- 67
2021-02-24 01:00:00 10.8 15 Sudeste 30 Sudeste 0 -- -- 66
2021-02-24 00:00:00 10.6 15 Sudeste 30 Sudeste 0 -- -- 68
2021-02-23 23:00:00 9.2 4 Este 9 Sudeste 0 -- -- 70
2021-02-23 22:00:00 9.6 6 Este 10 Este 0 -- -- 69
2021-02-23 21:00:00 9.1 0 Calma 3 Noroeste 0 -- -- 70
2021-02-23 20:00:00 10.9 0 Calma 10 Sur 0 -- -- 63
2021-02-23 19:00:00 13.1 8 Sur 22 Sur 0 -- -- 53
2021-02-23 18:00:00 14.7 13 Sur 29 Sudeste 0 -- -- 47
2021-02-23 17:00:00 14.8 14 Sur 26 Sudeste 0 -- -- 50
2021-02-23 16:00:00 14.6 15 Sudeste 26 Sudeste 0 -- -- 48
2021-02-23 15:00:00 14.1 15 Sudeste 32 Sudeste 0 -- -- 51
2021-02-23 14:00:00 13.4 17 Sudeste 30 Sudeste 0 -- -- 51
2021-02-23 13:00:00 12.6 21 Sudeste 31 Sudeste 0 -- -- 56
2021-02-23 12:00:00 12.1 17 Sudeste 28 Sudeste 0 -- -- 63
2021-02-23 11:00:00 10.4 5 Sur 12 Sudeste 0 -- -- 71
2021-02-23 10:00:00 7.4 6 Sudoeste 9 Sudoeste 0 -- -- 83
2021-02-23 09:00:00 3.6 0 Calma 6 Norte 0 -- -- 98
2021-02-23 08:00:00 2.7 0 Calma 5 Oeste 0 -- -- 96
2021-02-23 07:00:00 2.5 3 Noroeste 6 Noroeste 0 -- -- 96
2021-02-23 06:00:00 2.9 3 Norte 6 Noroeste 0 -- -- 96
2021-02-23 05:00:00 3.7 2 Noroeste 5 Noroeste 0 -- -- 93
2021-02-23 04:00:00 4.9 0 Calma 8 Norte 0 -- -- 91
2021-02-23 03:00:00 2.9 5 Nordeste 9 Norte 0 -- -- 94
2021-02-23 02:00:00 3.9 5 Norte 8 Oeste 0 -- -- 91
2021-02-23 01:00:00 5.4 0 Calma 12 Norte 0 -- -- 86
2021-02-23 00:00:00 5.7 8 Norte 12 Norte 0 -- -- 85
2021-02-22 23:00:00 6.1 9 Norte 11 Norte 0 -- -- 83
2021-02-22 22:00:00 6.2 10 Norte 14 Norte 0 -- -- 83
2021-02-22 21:00:00 6.8 9 Norte 12 Norte 0 -- -- 82
2021-02-22 20:00:00 7.6 11 Norte 12 Norte 0 -- -- 81
2021-02-22 19:00:00 11.5 3 Oeste 16 Sudoeste 0 -- -- 65
2021-02-22 18:00:00 12.4 6 Sudoeste 19 Oeste 0 -- -- 58
2021-02-22 17:00:00 14 9 Sudoeste 21 Sur 0 -- -- 45
2021-02-22 16:00:00 13.7 11 Sudoeste -- -- -- -- -- 50
2021-02-22 15:00:00 -- -- -- -- -- -- -- -- --
2021-02-22 14:00:00 12.6 7 Sur 14 Sudoeste 0 -- -- 53
2021-02-22 13:00:00 11.7 5 Sudeste 14 Sudoeste 0 -- -- 57
2021-02-22 12:00:00 10.2 5 Sudoeste 12 Sudeste 0 -- -- 62
2021-02-22 11:00:00 8.5 4 Sur 8 Sur 0 -- -- 75
2021-02-22 10:00:00 5 4 Este 6 Este 0 -- -- 85
2021-02-22 09:00:00 2.7 2 Sur 7 Sudoeste 0 -- -- 92
2021-02-22 08:00:00 1.9 2 Oeste 10 Este 0 -- -- 90
2021-02-22 07:00:00 2.3 0 Calma 18 Oeste 0 -- -- 91
2021-02-22 06:00:00 4.2 10 Noroeste 15 Noroeste 0 -- -- 82
2021-02-22 05:00:00 3.4 4 Noroeste 13 Oeste 0 -- -- 84
2021-02-22 04:00:00 4.8 4 Oeste 15 Oeste 0 -- -- 78
2021-02-22 03:00:00 4.2 4 Norte 18 Sudoeste 0 -- -- 82
2021-02-22 02:00:00 4.8 3 Norte 11 Oeste 0 -- -- 78
2021-02-22 01:00:00 4.6 0 Calma 8 Oeste 0 -- -- 81
2021-02-22 00:00:00 5.6 3 Oeste 14 Norte 0 -- -- 79
2021-02-21 23:00:00 6.4 4 Noroeste 14 Oeste 0 -- -- 77
2021-02-21 22:00:00 6.9 4 Oeste 13 Noroeste 0 -- -- 77
2021-02-21 21:00:00 7.8 9 Noroeste 18 Noroeste 0 -- -- 75
2021-02-21 20:00:00 8 8 Noroeste 14 Noroeste 0 -- -- 73
2021-02-21 19:00:00 9.3 6 Oeste 22 Noroeste 0 -- -- 69
2021-02-21 18:00:00 10.3 10 Noroeste 26 Noroeste 0 -- -- 61
2021-02-21 17:00:00 10.6 8 Oeste 22 Norte 0 -- -- 64
2021-02-21 16:00:00 9.8 9 Noroeste 26 Noroeste 0 -- -- 68
2021-02-21 15:00:00 9.6 8 Norte 33 Noroeste 0 -- -- 71
2021-02-21 14:00:00 8.6 10 Norte 32 Noroeste 0 -- -- 71
2021-02-21 13:00:00 8.7 7 Norte 51 Norte 0 -- -- 70
2021-02-21 12:00:00 8.7 24 Norte 48 Norte 0 -- -- 69
2021-02-21 11:00:00 6.8 19 Norte 50 Norte 0.2 -- -- 81
2021-02-21 10:00:00 5.3 21 Norte 37 Norte 1 -- -- 87
2021-02-21 09:00:00 6.8 4 Sudeste 23 Sudoeste 1.4 -- -- 95
2021-02-21 08:00:00 8.4 13 Sur 27 Sur 1.2 -- -- 95
2021-02-21 07:00:00 9.9 14 Sur 35 Sudeste 0.6 -- -- 89
2021-02-21 06:00:00 11.4 21 Sur 56 Sudeste 0.4 -- -- 79
2021-02-21 05:00:00 11.3 27 Sudeste 53 Sudeste 0.2 -- -- 69
2021-02-21 04:00:00 11.5 23 Sur 52 Sudeste 0 -- -- 66
2021-02-21 03:00:00 13.7 27 Sudeste 52 Sudeste 0 -- -- 54
2021-02-21 02:00:00 13.6 22 Sudeste 41 Sudeste 0 -- -- 56
2021-02-21 01:00:00 13.7 24 Sudeste 52 Sudeste 0 -- -- 56
2021-02-21 00:00:00 13.6 21 Sudeste 43 Sudeste 0 -- -- 49
2021-02-20 23:00:00 13.5 20 Sudeste 50 Sudeste 0 -- -- 49
2021-02-20 22:00:00 13.8 23 Sudeste 45 Sudeste 0 -- -- 49
2021-02-20 21:00:00 13.5 26 Sudeste 46 Sudeste 0 -- -- 53
2021-02-20 20:00:00 13.3 24 Sudeste 46 Sudeste 0 -- -- 56
2021-02-20 19:00:00 13.2 23 Sudeste 42 Sudeste 0 -- -- 57
2021-02-20 18:00:00 12.9 21 Sudeste 38 Sudeste 0 -- -- 63
2021-02-20 17:00:00 12.6 19 Sudeste 37 Sudeste 0 -- -- 67
2021-02-20 16:00:00 12.4 19 Sudeste 32 Sudeste 0 -- -- 72
2021-02-20 15:00:00 11.8 17 Sudeste 30 Sudeste 0 -- -- 78
2021-02-20 14:00:00 11.4 14 Sudeste 32 Sudeste 0 -- -- 81
2021-02-20 13:00:00 11.5 18 Sudeste 35 Sudeste 0 -- -- 82
2021-02-20 12:00:00 10.7 17 Sur 35 Sur 0 -- -- 85
2021-02-20 11:00:00 9.9 16 Sudeste 31 Sudeste 0 -- -- 89
2021-02-20 10:00:00 9.6 17 Sudeste 28 Sudeste 0 -- -- 90
2021-02-20 09:00:00 9 12 Sudeste 20 Sudeste 0 -- -- 93
2021-02-20 08:00:00 9 10 Sur 27 Sudeste 0 -- -- 92
2021-02-20 07:00:00 9.3 11 Sudeste 22 Sudeste 0 -- -- 92
2021-02-20 06:00:00 9.5 8 Sur 22 Sudeste 0 -- -- 91
2021-02-20 05:00:00 9.3 10 Sudeste 22 Sudeste 0 -- -- 90
2021-02-20 04:00:00 9.3 6 Sudeste 16 Este 0 -- -- 90
2021-02-20 03:00:00 9.7 6 Sudeste 18 Sudeste 0 -- -- 88
2021-02-20 02:00:00 10.2 10 Sudeste 20 Sudeste 0 -- -- 87
2021-02-20 01:00:00 10.9 10 Sudeste 19 Sudeste 0 -- -- 85
2021-02-20 00:00:00 11.3 10 Sudeste 23 Sudeste 0 -- -- 83
2021-02-19 23:00:00 11.7 10 Sur 29 Sur 0 -- -- 82
2021-02-19 22:00:00 12.1 15 Sudeste 33 Sudeste 0 -- -- 80
2021-02-19 21:00:00 12.3 18 Sudeste 31 Sudeste 0 -- -- 78
2021-02-19 20:00:00 12.4 15 Sudeste 28 Sudeste 0 -- -- 79
2021-02-19 19:00:00 12 9 Sudeste 22 Sudeste 0 -- -- 79
2021-02-19 18:00:00 12.4 15 Sudeste 24 Sur 0 -- -- 79
2021-02-19 17:00:00 12.6 12 Sudeste 23 Sudeste 0 -- -- 75
2021-02-19 16:00:00 13.2 13 Sur 21 Sur 0 -- -- 71
2021-02-19 15:00:00 13.1 11 Sur 24 Sur 0 -- -- 71
2021-02-19 14:00:00 13.7 13 Sur 23 Sudeste 0 -- -- 71
2021-02-19 13:00:00 13.3 14 Sudeste 25 Sur 0 -- -- 75
2021-02-19 12:00:00 11.7 13 Sudeste 23 Sudeste 0 -- -- 85
2021-02-19 11:00:00 10.5 10 Sudeste 17 Sudeste 0 -- -- 90
2021-02-19 10:00:00 8.9 4 Sudeste 14 Sur 0 -- -- 97
2021-02-19 09:00:00 8.2 3 Sudoeste 8 Norte 0 -- -- 96
2021-02-19 08:00:00 7.6 5 Norte 8 Norte 0 -- -- 96
2021-02-19 07:00:00 9 3 Sudoeste 7 Oeste 0 -- -- 92
2021-02-19 06:00:00 9.3 0 Calma 4 Este 0 -- -- 93
2021-02-19 05:00:00 9.8 0 Calma 5 Sudeste 0 -- -- 94
2021-02-19 04:00:00 10.1 0 Calma 4 Sur 0 -- -- 94
2021-02-19 03:00:00 10.3 0 Calma 8 Sudoeste 0 -- -- 93
2021-02-19 02:00:00 10.2 0 Calma 7 Sudeste 0 -- -- 92
2021-02-19 01:00:00 10 0 Calma 4 Sur 0 -- -- 95
2021-02-19 00:00:00 10.2 2 Nordeste 7 Norte 0 -- -- 96
2021-02-18 23:00:00 10.7 4 Norte 7 Norte 0 -- -- 96
2021-02-18 22:00:00 10.8 4 Norte 6 Noroeste 0 -- -- 96
2021-02-18 21:00:00 11.1 3 Norte 7 Norte 0 -- -- 95
2021-02-18 20:00:00 11.7 2 Oeste 8 Norte 0 -- -- 91
2021-02-18 19:00:00 11.7 6 Norte 8 Norte 0 -- -- 95
2021-02-18 18:00:00 11.9 5 Nordeste 10 Nordeste 0 -- -- 94
2021-02-18 17:00:00 11.9 0 Calma 20 Sudoeste 3.6 -- -- 92
2021-02-18 16:00:00 13.6 10 Sur 24 Sur 0 -- -- 75
2021-02-18 15:00:00 13.8 9 Sur 21 Sudeste 0 -- -- 77
2021-02-18 14:00:00 12.4 10 Sur 18 Sur 0 -- -- 83
2021-02-18 13:00:00 11.9 10 Sur 18 Sur 0 -- -- 83
2021-02-18 12:00:00 11.5 9 Sur 20 Sur 0 -- -- 85
2021-02-18 11:00:00 10.6 11 Sur 18 Sur 0 -- -- 89
2021-02-18 10:00:00 9.9 6 Sur 10 Sur 0 -- -- 94
2021-02-18 09:00:00 9.5 4 Sur 10 Sudeste 0 -- -- 94
2021-02-18 08:00:00 9.3 3 Sur 8 Sur 0 -- -- 94
2021-02-18 07:00:00 9.7 3 Sur 6 Sudeste 0 -- -- 91
2021-02-18 06:00:00 9.9 3 Sudeste 5 Sudeste 0 -- -- 91
2021-02-18 05:00:00 10.1 2 Este 9 Sur 0 -- -- 92
2021-02-18 04:00:00 10.1 8 Sur 13 Sur 0 -- -- 93
2021-02-18 03:00:00 10.4 4 Sudoeste 10 Oeste 0 -- -- 94
2021-02-18 02:00:00 10.6 0 Calma 4 Sudoeste 0 -- -- 94
2021-02-18 01:00:00 10.8 3 Oeste 10 Sudoeste 0 -- -- 91
2021-02-18 00:00:00 11 5 Oeste 9 Oeste 0 -- -- 90
2021-02-17 23:00:00 11.3 3 Nordeste 6 Nordeste 0 -- -- 89
2021-02-17 22:00:00 11.5 0 Calma 8 Nordeste 0 -- -- 88
2021-02-17 21:00:00 12.1 0 Calma 7 Noroeste 0 -- -- 87
2021-02-17 20:00:00 12.5 2 Norte 5 Norte 0 -- -- 86
2021-02-17 19:00:00 13.7 3 Sudeste 12 Sudeste 0 -- -- 77
2021-02-17 18:00:00 14.5 7 Sur 16 Sur 0 -- -- 74
2021-02-17 17:00:00 14.9 8 Sudeste 18 Sudeste 0.2 -- -- 72
2021-02-17 16:00:00 15.5 10 Sur 17 Sur 0 -- -- 69
2021-02-17 15:00:00 15.2 11 Sur 19 Sur 0 -- -- 74
2021-02-17 14:00:00 14.2 11 Sur 18 Sur 0 -- -- 79
2021-02-17 13:00:00 13 2 Nordeste 9 Sudoeste 0 -- -- 89
2021-02-17 12:00:00 11.8 2 Norte 4 Norte 0 -- -- 95
2021-02-17 11:00:00 10.6 0 Calma 5 Oeste 0 -- -- 98
2021-02-17 10:00:00 9.9 3 Sudoeste 7 Sudoeste 0 -- -- 98
2021-02-17 09:00:00 9.9 3 Oeste 5 Oeste 0 -- -- 99
2021-02-17 08:00:00 9.8 0 Calma 4 Sudoeste 0 -- -- 99
2021-02-17 07:00:00 9.8 0 Calma 4 Este 0 -- -- 98
2021-02-17 06:00:00 9.9 0 Calma 6 Oeste 0 -- -- 98
2021-02-17 05:00:00 10 2 Sudoeste 4 Sudoeste 0 -- -- 97
2021-02-17 04:00:00 10.1 0 Calma 8 Norte 0 -- -- 97
2021-02-17 03:00:00 10.3 5 Norte 8 Norte 0 -- -- 97
2021-02-17 02:00:00 10.5 0 Calma 5 Norte 0 -- -- 97
2021-02-17 01:00:00 10.6 4 Noroeste 8 Norte 0 -- -- 97
2021-02-17 00:00:00 10.7 2 Nordeste 7 Oeste 0.4 -- -- 95
2021-02-16 23:00:00 11 2 Nordeste 8 Norte 0 -- -- 92
2021-02-16 22:00:00 11.2 0 Calma 6 Norte 0 -- -- 89
2021-02-16 21:00:00 11.4 5 Norte 8 Norte 0 -- -- 86
2021-02-16 20:00:00 11.4 5 Norte 8 Noroeste 0 -- -- 87
2021-02-16 19:00:00 11.6 4 Noroeste 7 Noroeste 0 -- -- 86
2021-02-16 18:00:00 11.9 4 Norte 8 Norte 0 -- -- 84
2021-02-16 17:00:00 11.7 3 Noroeste 8 Norte 0 -- -- 82
2021-02-16 16:00:00 11.2 5 Noroeste 10 Norte 0 -- -- 82
2021-02-16 15:00:00 11 2 Norte 6 Noroeste 0 -- -- 82
2021-02-16 14:00:00 10.8 4 Oeste 8 Sur 0 -- -- 81
2021-02-16 13:00:00 10.8 6 Sur 10 Sur 0 -- -- 79
2021-02-16 12:00:00 10.3 4 Sur 8 Sur 0 -- -- 83
2021-02-16 11:00:00 9.8 0 Calma 3 Este 0 -- -- 85
2021-02-16 10:00:00 8.7 0 Calma 4 Oeste 0 -- -- 90
2021-02-16 09:00:00 7.4 0 Calma 6 Oeste 0 -- -- 95
2021-02-16 08:00:00 6.2 2 Noroeste 7 Oeste 0 -- -- 94
2021-02-16 07:00:00 6.7 4 Noroeste 6 Noroeste 0 -- -- 93
2021-02-16 06:00:00 7.8 4 Noroeste 11 Oeste 0 -- -- 87
2021-02-16 05:00:00 8.4 4 Oeste 12 Oeste 0 -- -- 84
2021-02-16 04:00:00 10 3 Oeste 14 Sudoeste 0 -- -- 78
2021-02-16 03:00:00 10.9 3 Sur 15 Sudeste 0 -- -- 74
2021-02-16 02:00:00 11.5 5 Sur 19 Sudeste 0 -- -- 73
2021-02-16 01:00:00 11.9 6 Sudeste 20 Sudeste 0 -- -- 73
2021-02-16 00:00:00 12.4 10 Sudeste 26 Este 0 -- -- 73
2021-02-15 23:00:00 12 5 Este 15 Este 0 -- -- 75
2021-02-15 22:00:00 12.3 9 Este 20 Este 0 -- -- 74
2021-02-15 21:00:00 12.4 8 Este 21 Sudeste 0 -- -- 73
2021-02-15 20:00:00 12.7 4 Nordeste 23 Este 0 -- -- 70
2021-02-15 19:00:00 14.2 9 Sudeste 26 Sudeste 0 -- -- 64
2021-02-15 18:00:00 15.7 16 Sudeste 29 Sudeste 0 -- -- 60
2021-02-15 17:00:00 16.3 15 Sudeste 27 Sudeste 0 -- -- 58
2021-02-15 16:00:00 16.1 17 Sudeste 33 Sudeste 0 -- -- 61
2021-02-15 15:00:00 15.8 17 Sudeste 32 Este 0 -- -- 61
2021-02-15 14:00:00 15.5 18 Sudeste 38 Sudeste 0 -- -- 62
2021-02-15 13:00:00 14.7 18 Sudeste 32 Sudeste 0 -- -- 63
2021-02-15 12:00:00 13.7 16 Este 30 Sudeste 0 -- -- 67
2021-02-15 11:00:00 13 12 Este 23 Este 0 -- -- 68
2021-02-15 10:00:00 11.4 9 Sudeste 14 Sudeste 0 -- -- 75
2021-02-15 09:00:00 8.1 6 Oeste 14 Oeste 0 -- -- 85
2021-02-15 08:00:00 8.3 8 Oeste 12 Noroeste 0 -- -- 83
2021-02-15 07:00:00 8.6 0 Calma 9 Oeste 0 -- -- 80
2021-02-15 06:00:00 8.6 6 Oeste 12 Oeste 0 -- -- 80
2021-02-15 05:00:00 9.3 6 Oeste 11 Sudoeste 0 -- -- 77
2021-02-15 04:00:00 9.4 5 Oeste 10 Oeste 0 -- -- 77
2021-02-15 03:00:00 8.7 4 Noroeste 9 Oeste 0 -- -- 82
2021-02-15 02:00:00 9.7 6 Oeste 11 Oeste 0 -- -- 78
2021-02-15 01:00:00 10.4 5 Oeste 9 Oeste 0 -- -- 76
2021-02-15 00:00:00 10.8 0 Calma 8 Este 0 -- -- 74
2021-02-14 23:00:00 10.8 3 Nordeste 6 Norte 0 -- -- 75
2021-02-14 22:00:00 11.1 0 Calma 7 Nordeste 0 -- -- 75
2021-02-14 21:00:00 11.1 8 Norte 12 Norte 0 -- -- 81
2021-02-14 20:00:00 12.7 3 Nordeste 8 Este 0 -- -- 75
2021-02-14 19:00:00 14.9 5 Este 14 Este 0 -- -- 66
2021-02-14 18:00:00 16.6 7 Sudeste 18 Sur 0 -- -- 61
2021-02-14 17:00:00 17.6 8 Sur 23 Sudeste 0 -- -- 59
2021-02-14 16:00:00 17.4 10 Sur 20 Sudeste 0 -- -- 56
2021-02-14 15:00:00 16.9 13 Sur 23 Sudeste 0 -- -- 60
2021-02-14 14:00:00 16.8 11 Sudeste 21 Sur 0 -- -- 59
2021-02-14 13:00:00 15.8 13 Sudeste 24 Sudeste 0 -- -- 62
2021-02-14 12:00:00 14 6 Sudoeste 9 Sudoeste 0 -- -- 76
2021-02-14 11:00:00 11.8 0 Calma 4 Sudeste 0 -- -- 85
2021-02-14 10:00:00 9.3 0 Calma 6 Nordeste 0 -- -- 96
2021-02-14 09:00:00 5.7 4 Norte 8 Norte 0 -- -- 99
2021-02-14 08:00:00 4.6 0 Calma 4 Noroeste 0 -- -- 98
2021-02-14 07:00:00 5.4 2 Noroeste 6 Norte 0 -- -- 98
2021-02-14 06:00:00 5.5 0 Calma 5 Norte 0 -- -- 97
2021-02-14 05:00:00 6.9 3 Oeste 9 Oeste 0 -- -- 95
2021-02-14 04:00:00 8.5 7 Norte 10 Norte 0 -- -- 91
2021-02-14 03:00:00 8.3 10 Norte 10 Norte 0 -- -- 93
2021-02-14 02:00:00 7.9 8 Norte 9 Norte 0 -- -- 95
2021-02-14 01:00:00 8.5 5 Norte 9 Norte 0 -- -- 90
2021-02-14 00:00:00 7.8 5 Nordeste 8 Norte 0 -- -- 95
2021-02-13 23:00:00 9.1 4 Norte 9 Noroeste 0 -- -- 90
2021-02-13 22:00:00 9.8 5 Norte 10 Norte 0 -- -- 86
2021-02-13 21:00:00 10.4 9 Norte 13 Norte 0 -- -- 85
2021-02-13 20:00:00 11.8 7 Norte 9 Norte 0 -- -- 83
2021-02-13 19:00:00 14.8 4 Sudoeste 8 Sur 0 -- -- 67
2021-02-13 18:00:00 17.5 3 Sur 9 Sur 0 -- -- 57
2021-02-13 17:00:00 17.2 6 Sur 12 Sur 0 -- -- 55
2021-02-13 16:00:00 17.2 6 Sur 11 Sur 0 -- -- 52
2021-02-13 15:00:00 16.6 6 Sur 10 Sur 0 -- -- 52
2021-02-13 14:00:00 15.6 6 Sur 12 Sur 0 -- -- 57
2021-02-13 13:00:00 14.3 5 Sur 11 Sur 0 -- -- 62
2021-02-13 08:00:00 -- -- -- -- -- -- -- -- --
2021-02-13 07:00:00 -- -- -- -- -- -- -- -- --
2021-02-13 06:00:00 5.8 4 Oeste 9 Oeste 0 -- -- 95
2021-02-13 05:00:00 6 2 Sudoeste 10 Norte 0 -- -- 91
2021-02-13 04:00:00 5.8 7 Norte 9 Norte 0 -- -- 91
2021-02-13 03:00:00 6 3 Norte 11 Norte 0 -- -- 86
2021-02-13 02:00:00 7 0 Calma 10 Norte 0 -- -- 82
2021-02-13 01:00:00 7.3 5 Norte 9 Norte 0 -- -- 80
2021-02-13 00:00:00 8.3 7 Norte 9 Norte 0 -- -- 82
2021-02-12 23:00:00 8.9 3 Este 6 Norte 0 -- -- 85
2021-02-12 22:00:00 10 2 Noroeste 9 Norte 0 -- -- 76
2021-02-12 21:00:00 11.4 7 Norte 14 Norte 0 -- -- 70
2021-02-12 20:00:00 11 6 Noroeste 12 Noroeste 0 -- -- 73
2021-02-12 19:00:00 11.9 7 Norte 12 Noroeste 0 -- -- 73
2021-02-12 18:00:00 16 3 Noroeste 21 Noroeste 0 -- -- 55
2021-02-12 17:00:00 16.4 9 Oeste 20 Noroeste 0 -- -- 55
2021-02-12 16:00:00 16.6 8 Oeste 22 Noroeste 0 -- -- 54
2021-02-12 15:00:00 15.6 9 Oeste 21 Oeste 0 -- -- 60
2021-02-12 14:00:00 15.4 8 Oeste 32 Noroeste 0 -- -- 59
2021-02-12 13:00:00 14.6 11 Oeste 24 Noroeste 0 -- -- 69
2021-02-12 12:00:00 12.3 10 Sudoeste 18 Sudoeste 0 -- -- 82
2021-02-12 11:00:00 10.6 5 Sudoeste 9 Sudoeste 0 -- -- 91
2021-02-12 10:00:00 9.2 0 Calma 7 Norte 0 -- -- 99
2021-02-12 09:00:00 6.8 0 Calma 10 Norte 0 -- -- 99
2021-02-12 08:00:00 7.1 3 Norte 9 Norte 0 -- -- 99
2021-02-12 07:00:00 6.4 6 Nordeste 8 Nordeste 0 -- -- 98
2021-02-12 06:00:00 8 0 Calma 9 Norte 0 -- -- 97
2021-02-12 05:00:00 9.3 4 Oeste 11 Oeste 0 -- -- 96
2021-02-12 04:00:00 10.8 8 Sudoeste 20 Sudoeste 0 -- -- 97
2021-02-12 03:00:00 11.5 11 Sudoeste 22 Oeste 0 -- -- 98
2021-02-12 02:00:00 11.6 3 Sudoeste 8 Sur 0.4 -- -- 99
2021-02-12 01:00:00 11.8 4 Sur 19 Sur 1 -- -- 99
2021-02-12 00:00:00 12 9 Sudoeste 19 Sur 2 -- -- 99
2021-02-11 23:00:00 12.3 12 Sur 22 Sudoeste 0 -- -- 97
2021-02-11 22:00:00 12.5 7 Sudoeste 27 Sudeste 0 -- -- 97
2021-02-11 21:00:00 12.4 6 Sur 12 Sudeste 0 -- -- 98
2021-02-11 20:00:00 12.6 5 Sur 22 Sudoeste 0 -- -- 97
2021-02-11 19:00:00 13 8 Sur 19 Sur 0.6 -- -- 97
2021-02-11 18:00:00 13.3 6 Sur 15 Sudeste 0.2 -- -- 94
2021-02-11 17:00:00 13.7 6 Sur 15 Sur 0 -- -- 97
2021-02-11 16:00:00 13 9 Sur 24 Sudoeste 0.4 -- -- 98
2021-02-11 15:00:00 13.7 12 Sur 21 Sur 0 -- -- 96
2021-02-11 14:00:00 13 10 Sur 18 Sur 0.2 -- -- 98
2021-02-11 13:00:00 12.9 13 Sur 23 Sur 0 -- -- 99
2021-02-11 12:00:00 12 9 Sur 14 Sudeste 1.4 -- -- 100
2021-02-11 11:00:00 11.6 6 Sur 11 Sur 0.8 -- -- 100
2021-02-11 10:00:00 11.4 4 Sudeste 6 Sudeste 0.8 -- -- 100
2021-02-11 09:00:00 10.9 2 Sur 4 Sudoeste 0.4 -- -- 99
2021-02-11 08:00:00 10.9 0 Calma -- -- 0.2 -- -- 99
2021-02-11 07:00:00 10.8 0 Calma 2 Oeste 0.8 -- -- 99
2021-02-11 06:00:00 10.8 2 Nordeste 4 Oeste 0.6 -- -- 99
2021-02-11 05:00:00 10.9 0 Calma 4 Sudoeste 0 -- -- 99
2021-02-11 04:00:00 10.9 0 Calma 2 Noroeste 0 -- -- 99
2021-02-11 03:00:00 10.8 0 Calma 3 Noroeste 0.4 -- -- 99
2021-02-11 02:00:00 10.5 0 Calma 4 Norte 0.2 -- -- 99
2021-02-11 01:00:00 10.3 0 Calma 3 Sudoeste 0.2 -- -- 98
2021-02-11 00:00:00 10.3 0 Calma 5 Nordeste 0.4 -- -- 97
2021-02-10 23:00:00 10.3 2 Norte 6 Norte 0.4 -- -- 96
2021-02-10 22:00:00 10.7 3 Norte 5 Nordeste 0 -- -- 91
2021-02-10 21:00:00 10.8 4 Norte 5 Norte 0 -- -- 89
2021-02-10 20:00:00 11 2 Norte 5 Norte 0 -- -- 89
2021-02-10 19:00:00 11.7 0 Calma 12 Sudoeste 0 -- -- 83
2021-02-10 18:00:00 12.3 6 Sudoeste 13 Sudoeste 0 -- -- 77
2021-02-10 17:00:00 13 3 Oeste 20 Sudoeste 0 -- -- 68
2021-02-10 16:00:00 14.2 13 Sudoeste 20 Sudoeste 0 -- -- 59
2021-02-10 15:00:00 14.9 12 Sudoeste 23 Sudoeste 0 -- -- 57
2021-02-10 14:00:00 14.2 9 Sudoeste 20 Sudoeste 0 -- -- 58
2021-02-10 13:00:00 13.2 10 Sudoeste 21 Sudoeste 0 -- -- 69
2021-02-10 12:00:00 12.5 8 Sur 13 Sur 0 -- -- 71
2021-02-10 11:00:00 10.8 3 Sur 10 Este 0 -- -- 82
2021-02-10 10:00:00 8.5 3 Sur 11 Sudeste 0 -- -- 89
2021-02-10 09:00:00 5.3 6 Nordeste 17 Nordeste 0 -- -- 97
2021-02-10 08:00:00 5 3 Este 11 Norte 0 -- -- 95
2021-02-10 07:00:00 6.5 6 Norte 22 Oeste 0 -- -- 91
2021-02-10 06:00:00 7.8 10 Oeste 25 Oeste 0 -- -- 87
2021-02-10 05:00:00 8.3 15 Oeste 28 Oeste 0.2 -- -- 91
2021-02-10 04:00:00 8.4 2 Oeste 13 Noroeste 1.2 -- -- 96
2021-02-10 03:00:00 8.7 6 Oeste 30 Oeste 0.8 -- -- 94
2021-02-10 02:00:00 8.8 16 Sudoeste 30 Sudoeste 0.2 -- -- 91
2021-02-10 01:00:00 8.3 9 Oeste 23 Sudoeste 0.2 -- -- 94
2021-02-10 00:00:00 7.7 0 Calma 5 Nordeste 0 -- -- 93
2021-02-09 23:00:00 7.7 3 Oeste 26 Sudoeste 0.2 -- -- 91
2021-02-09 22:00:00 8.4 10 Oeste 25 Sudoeste 0.6 -- -- 92
2021-02-09 21:00:00 8.7 9 Oeste 20 Oeste 0 -- -- 85
2021-02-09 20:00:00 8.3 8 Oeste 26 Sudoeste 0 -- -- 87
2021-02-09 19:00:00 9.4 13 Sudoeste 37 Oeste 0 -- -- 82
2021-02-09 18:00:00 10.4 13 Oeste 36 Oeste 0 -- -- 78
2021-02-09 17:00:00 11.2 19 Sudoeste 44 Sudoeste 0 -- -- 78
2021-02-09 16:00:00 11.5 18 Sudoeste 38 Oeste 0 -- -- 81
2021-02-09 15:00:00 10.2 13 Sudoeste 22 Oeste 0 -- -- 86
2021-02-09 14:00:00 8.9 7 Oeste 26 Oeste 0.2 -- -- 86
2021-02-09 13:00:00 8.7 11 Noroeste 39 Oeste 1.8 -- -- 91
2021-02-09 12:00:00 9.8 9 Sudoeste 29 Sudoeste 6.4 -- -- 99
2021-02-09 11:00:00 9.6 14 Oeste 49 Sudoeste 3.2 -- -- 98
2021-02-09 10:00:00 9.4 18 Sur 40 Sur 2 -- -- 98
2021-02-09 09:00:00 9.3 17 Sudoeste 43 Sudoeste 1 -- -- 98
2021-02-09 08:00:00 9.1 13 Sudoeste 26 Sudoeste 3.4 -- -- 99
2021-02-09 07:00:00 8.9 7 Sudoeste 23 Sudoeste 3.4 -- -- 99
2021-02-09 06:00:00 8.8 10 Sudoeste 26 Sudoeste 1.8 -- -- 99
2021-02-09 05:00:00 8.6 10 Sudoeste 18 Sur 0.4 -- -- 99
2021-02-09 04:00:00 8.5 7 Sur 21 Sudoeste 0.2 -- -- 98
2021-02-09 03:00:00 8.1 10 Sur 22 Sur 0.2 -- -- 99
2021-02-09 02:00:00 7.6 6 Sur 14 Sur 1.2 -- -- 99
2021-02-09 01:00:00 6.7 0 Calma 6 Este 0 -- -- 95
2021-02-09 00:00:00 6.6 3 Norte 7 Norte 0 -- -- 89
2021-02-08 23:00:00 6.9 4 Norte 6 Norte 0 -- -- 86
2021-02-08 22:00:00 7.2 6 Norte 9 Norte 0 -- -- 86
2021-02-08 21:00:00 7.9 0 Calma 10 Oeste 0 -- -- 81
2021-02-08 20:00:00 8.7 7 Oeste 23 Sudoeste 0 -- -- 77
2021-02-08 19:00:00 9 6 Oeste 24 Oeste 0 -- -- 77
2021-02-08 18:00:00 10.2 16 Oeste 32 Oeste 0 -- -- 68
2021-02-08 17:00:00 11 20 Oeste 44 Sudoeste 0 -- -- 67
2021-02-08 16:00:00 11.3 18 Sudoeste 39 Sudoeste 0.2 -- -- 66
2021-02-08 15:00:00 11.7 19 Sudoeste 41 Sudoeste 0 -- -- 66
2021-02-08 14:00:00 11.6 19 Sudoeste 39 Oeste 0 -- -- 72
2021-02-08 13:00:00 10.1 14 Oeste 36 Sudoeste 0 -- -- 73
2021-02-08 12:00:00 9.4 13 Oeste 45 Oeste 0 -- -- 79
2021-02-08 11:00:00 8 3 Sudoeste 19 Oeste 2.2 -- -- 94
2021-02-08 10:00:00 7 0 Calma 3 Sudoeste 0.8 -- -- 99
2021-02-08 09:00:00 6.5 4 Norte 10 Norte 2.2 -- -- 99
2021-02-08 08:00:00 6.1 0 Calma 6 Este 0.2 -- -- 99
2021-02-08 07:00:00 6 0 Calma 9 Oeste 0.2 -- -- 97
2021-02-08 06:00:00 5.7 6 Noroeste 12 Oeste 0 -- -- 96
2021-02-08 05:00:00 6.5 6 Oeste 14 Oeste 0 -- -- 95
2021-02-08 04:00:00 7.5 7 Sudoeste 15 Oeste 0 -- -- 100
2021-02-08 03:00:00 8.4 2 Este 9 Nordeste 0.2 -- -- 100
2021-02-08 02:00:00 8.1 6 Norte 12 Norte 5 -- -- 100
2021-02-08 01:00:00 7.9 4 Este 8 Este 6.4 -- -- 100
2021-02-08 00:00:00 7.5 5 Este 8 Este 5.6 -- -- 100
2021-02-07 23:00:00 7.5 2 Este 8 Este 3.6 -- -- 99
2021-02-07 22:00:00 7.4 4 Sudeste 10 Este 2.8 -- -- 98
2021-02-07 21:00:00 7.4 3 Este 5 Sudeste 1.2 -- -- 97
2021-02-07 20:00:00 7.5 0 Calma 3 Sudeste 0 -- -- 93
2021-02-07 19:00:00 7.6 0 Calma 5 Nordeste 0 -- -- 89
2021-02-07 18:00:00 7.7 4 Nordeste 5 Nordeste 0 -- -- 86
2021-02-07 17:00:00 8 0 Calma 4 Oeste 0 -- -- 82
2021-02-07 16:00:00 7.7 0 Calma 8 Noroeste 0.2 -- -- 85
2021-02-07 15:00:00 7.8 2 Noroeste 20 Oeste 0.4 -- -- 84
2021-02-07 14:00:00 8.6 13 Oeste 28 Sudoeste 0 -- -- 67
2021-02-07 13:00:00 9.8 8 Sudoeste 18 Sudoeste 0 -- -- 72
2021-02-07 12:00:00 9.3 9 Sudoeste 14 Oeste 0 -- -- 72
2021-02-07 11:00:00 9.2 6 Noroeste 17 Noroeste 0 -- -- 68
2021-02-07 10:00:00 7.8 3 Oeste 14 Noroeste 0 -- -- 73
2021-02-07 09:00:00 5.5 4 Oeste 12 Noroeste 0 -- -- 80
2021-02-07 08:00:00 5.7 7 Norte 22 Noroeste 0 -- -- 80
2021-02-07 07:00:00 4.4 5 Noroeste 14 Norte 0 -- -- 88
2021-02-07 06:00:00 5.5 7 Noroeste 20 Norte 0 -- -- 86
2021-02-07 05:00:00 7 9 Noroeste 20 Noroeste 0 -- -- 80
2021-02-07 04:00:00 7.2 9 Norte 30 Norte 0 -- -- 80
2021-02-07 03:00:00 7.5 15 Norte 32 Norte 0 -- -- 82
2021-02-07 02:00:00 7.8 13 Nordeste 27 Nordeste 0 -- -- 81
2021-02-07 01:00:00 8.3 12 Norte 35 Norte 0 -- -- 79
2021-02-07 00:00:00 8.4 8 Norte 37 Este 0 -- -- 80
2021-02-06 23:00:00 8.7 13 Norte 31 Norte 0 -- -- 79
2021-02-06 22:00:00 8.7 9 Nordeste 32 Nordeste 0 -- -- 79
2021-02-06 21:00:00 8.9 13 Norte 33 Norte 0 -- -- 82
2021-02-06 20:00:00 9.3 10 Nordeste 31 Nordeste 0 -- -- 81
2021-02-06 19:00:00 9.9 11 Nordeste 27 Este 0 -- -- 81
2021-02-06 18:00:00 10.3 0 Calma 30 Norte 0 -- -- 83
2021-02-06 17:00:00 10.6 7 Norte 18 Nordeste 0 -- -- 82
2021-02-06 16:00:00 10.8 4 Noroeste 10 Noroeste 0 -- -- 85
2021-02-06 15:00:00 9.8 5 Sudoeste 9 Sudoeste 0.2 -- -- 95
2021-02-06 14:00:00 9.9 3 Sudoeste 9 Sudeste 1.6 -- -- 90
2021-02-06 13:00:00 10.9 3 Sudeste 11 Sudeste 0 -- -- 88
2021-02-06 12:00:00 9.9 3 Sudeste 7 Sudeste 0 -- -- 97
2021-02-06 11:00:00 8.6 3 Sudoeste 4 Sudoeste 0 -- -- 100
2021-02-06 10:00:00 7.9 2 Sudoeste 5 Sudoeste 0 -- -- 100
2021-02-06 09:00:00 7.6 0 Calma 2 Sudeste 0.2 -- -- 100
2021-02-06 08:00:00 7.4 0 Calma 2 Oeste 0.2 -- -- 100
2021-02-06 07:00:00 7.5 0 Calma 2 Noroeste 0.2 -- -- 100
2021-02-06 06:00:00 7.5 0 Calma 2 Norte 0.2 -- -- 100
2021-02-06 05:00:00 7.4 0 Calma 3 Norte 0 -- -- 100
2021-02-06 04:00:00 7.4 0 Calma 4 Norte 0.2 -- -- 100
2021-02-06 03:00:00 7.4 3 Norte 4 Norte 0.2 -- -- 99
2021-02-06 02:00:00 7.5 0 Calma 6 Norte 0.4 -- -- 98
2021-02-06 01:00:00 7.8 4 Noroeste 10 Sur 0.6 -- -- 97
2021-02-06 00:00:00 8.2 3 Sudeste 14 Nordeste 0 -- -- 92
2021-02-05 23:00:00 8 3 Norte 9 Norte 0.2 -- -- 96
2021-02-05 22:00:00 8 3 Norte 11 Norte 0.6 -- -- 99
2021-02-05 21:00:00 8.1 3 Norte 5 Norte 1.6 -- -- 99
2021-02-05 20:00:00 8.4 2 Sur 6 Sudeste 1 -- -- 99
2021-02-05 19:00:00 8.6 3 Nordeste 6 Norte 1 -- -- 98
2021-02-05 18:00:00 9 3 Noroeste 6 Norte 1 -- -- 98
2021-02-05 17:00:00 9.7 0 Calma 4 Norte 1.2 -- -- 98
2021-02-05 16:00:00 9.8 3 Sudeste 11 Sudeste 2.2 -- -- 98
2021-02-05 15:00:00 9.9 6 Sudeste 11 Sur 2.4 -- -- 97
2021-02-05 14:00:00 10.1 4 Este 10 Este 1.8 -- -- 97
2021-02-05 13:00:00 10.2 4 Sur 8 Este 2.2 -- -- 98
2021-02-05 12:00:00 10 5 Este 12 Este 2 -- -- 96
2021-02-05 11:00:00 9.9 0 Calma 10 Norte 0.6 -- -- 97
2021-02-05 10:00:00 10.2 4 Sudeste 27 Este 0.2 -- -- 93
2021-02-05 09:00:00 10.1 15 Este 32 Este 0 -- -- 93
2021-02-05 08:00:00 8.6 3 Noroeste 15 Norte 0.2 -- -- 95
2021-02-05 07:00:00 8.6 8 Noroeste 14 Norte 0.6 -- -- 94
2021-02-05 06:00:00 8.8 7 Norte 21 Norte 0 -- -- 91
2021-02-05 05:00:00 8.6 11 Norte 19 Norte 2.2 -- -- 94
2021-02-05 04:00:00 7.9 4 Norte 7 Noroeste 0.6 -- -- 99
2021-02-05 03:00:00 8.1 2 Sudeste 9 Noroeste 0.6 -- -- 98
2021-02-05 02:00:00 8 5 Oeste 19 Nordeste 0.2 -- -- 95
2021-02-05 01:00:00 7.8 8 Norte 21 Nordeste 0.6 -- -- 99
2021-02-05 00:00:00 7.8 0 Calma 8 Oeste 0.8 -- -- 99
2021-02-04 23:00:00 7.8 5 Oeste 10 Noroeste 0 -- -- 98
2021-02-04 22:00:00 7.8 4 Norte 7 Sudoeste 0 -- -- 99
2021-02-04 21:00:00 8.3 4 Sudoeste 8 Norte 0 -- -- 99
2021-02-04 20:00:00 8.8 0 Calma 14 Oeste 0 -- -- 98
2021-02-04 19:00:00 8.9 6 Noroeste 9 Noroeste 0 -- -- 96
2021-02-04 18:00:00 9.4 2 Sur 8 Sudoeste 0 -- -- 95
2021-02-04 17:00:00 9.5 4 Oeste 12 Sur 0 -- -- 95
2021-02-04 16:00:00 9.3 6 Oeste 9 Oeste 0.4 -- -- 97
2021-02-04 15:00:00 8.7 4 Oeste 8 Oeste 1.8 -- -- 97
2021-02-04 14:00:00 8.8 2 Nordeste 5 Nordeste 1 -- -- 99
2021-02-04 13:00:00 8.8 3 Sudoeste 6 Oeste 0.8 -- -- 99
2021-02-04 12:00:00 8.7 3 Oeste 8 Sudoeste 1 -- -- 99
2021-02-04 11:00:00 8.6 0 Calma 14 Sudeste 1.2 -- -- 99
2021-02-04 10:00:00 8.6 4 Este 14 Sudeste 4.4 -- -- 100
2021-02-04 09:00:00 8.4 0 Calma 8 Oeste 5.2 -- -- 100
2021-02-04 08:00:00 8.7 0 Calma 4 Nordeste 2.2 -- -- 100
2021-02-04 07:00:00 9 0 Calma 7 Este 1.2 -- -- 100
2021-02-04 06:00:00 9.2 2 Este 4 Norte 0.2 -- -- 100
2021-02-04 05:00:00 9.2 2 Nordeste 5 Norte 0 -- -- 100
2021-02-04 04:00:00 9.2 4 Norte 5 Norte 0.2 -- -- 100
2021-02-04 03:00:00 9.6 2 Noroeste 4 Noroeste 0 -- -- 100
2021-02-04 02:00:00 9.9 0 Calma 3 Sudoeste 0 -- -- 100
2021-02-04 01:00:00 10.1 0 Calma 4 Sudoeste 0 -- -- 99
2021-02-04 00:00:00 10.2 0 Calma 9 Sur 0 -- -- 100
2021-02-03 23:00:00 10.5 7 Sudoeste 13 Sur 0 -- -- 100
2021-02-03 22:00:00 10.6 5 Sur 9 Sur 0 -- -- 100
2021-02-03 21:00:00 10.7 0 Calma 10 Sudoeste 0 -- -- 99
2021-02-03 20:00:00 11.3 6 Oeste 13 Sudoeste 1.4 -- -- 99
2021-02-03 19:00:00 11.3 3 Nordeste 5 Sur 0 -- -- 99
2021-02-03 18:00:00 11.6 3 Sur 13 Sur 1.4 -- -- 99
2021-02-03 17:00:00 11.5 6 Sudeste 12 Sudeste 0.8 -- -- 97
2021-02-03 16:00:00 11.8 7 Sur 14 Sur 0.6 -- -- 95
2021-02-03 15:00:00 12.1 8 Sur 17 Sur 0 -- -- 97
2021-02-03 14:00:00 12 9 Sur 17 Sur 0.8 -- -- 100
2021-02-03 13:00:00 11.2 9 Sur 18 Sur 1.4 -- -- 100
2021-02-03 12:00:00 11 10 Sur 19 Sur 0.8 -- -- 100
2021-02-03 11:00:00 10.6 7 Sudeste 17 Sur 0.2 -- -- 100
2021-02-03 10:00:00 10 5 Sur 15 Sur 0.4 -- -- 100
2021-02-03 09:00:00 9.8 6 Sur 14 Sur 1 -- -- 100
2021-02-03 08:00:00 9.7 3 Sudeste 9 Sur 1 -- -- 100
2021-02-03 07:00:00 9.6 3 Sudeste 9 Sur 2 -- -- 100
2021-02-03 06:00:00 9.5 3 Sur 14 Sur 1.4 -- -- 100
2021-02-03 05:00:00 9.5 6 Sur 14 Sur 1.4 -- -- 100
2021-02-03 04:00:00 9.6 7 Sur 13 Sur 2.2 -- -- 100
2021-02-03 03:00:00 9.7 6 Sur 14 Sur 0.8 -- -- 99
2021-02-03 02:00:00 9.9 3 Sur 12 Sur 0.2 -- -- 99
2021-02-03 01:00:00 10.1 4 Sur 18 Sudoeste 0 -- -- 97
2021-02-03 00:00:00 10.4 8 Sudoeste 24 Sur 0 -- -- 95
2021-02-02 23:00:00 10.3 14 Sur 24 Sur 0.2 -- -- 97
2021-02-02 22:00:00 10.3 10 Sur 17 Sur 0 -- -- 96
2021-02-02 21:00:00 10.8 8 Sur 19 Sur 0 -- -- 92
2021-02-02 20:00:00 10.9 6 Sur 12 Sur 0 -- -- 92
2021-02-02 19:00:00 10.9 4 Sur 10 Sur 0 -- -- 95
2021-02-02 18:00:00 11 5 Sur 17 Sur 0.2 -- -- 97
2021-02-02 17:00:00 11.3 9 Sur 22 Sudoeste 0 -- -- 95
2021-02-02 16:00:00 12 10 Sur 22 Sur 0 -- -- 89
2021-02-02 15:00:00 11.9 8 Sur 28 Sudoeste 0.2 -- -- 93
2021-02-02 14:00:00 11.7 10 Sudoeste 20 Sudoeste 0 -- -- 90
2021-02-02 13:00:00 11.8 9 Sur 22 Sur 0.2 -- -- 93
2021-02-02 12:00:00 11.1 8 Sur 15 Sur 0 -- -- 96
2021-02-02 11:00:00 10.8 6 Sur 10 Sudeste 0 -- -- 97
2021-02-02 10:00:00 10.2 0 Calma 6 Sudeste 0 -- -- 98
2021-02-02 09:00:00 10 2 Sudeste 5 Nordeste 0 -- -- 99
2021-02-02 08:00:00 10.2 2 Sudeste 9 Sudoeste 0.2 -- -- 98
2021-02-02 07:00:00 10.8 4 Sudoeste 10 Sudoeste 0 -- -- 99
2021-02-02 06:00:00 11 2 Sudeste 5 Sur 0 -- -- 99
2021-02-02 05:00:00 11.2 3 Sur 8 Sur 0 -- -- 99
2021-02-02 04:00:00 11.1 0 Calma 4 Este 0.4 -- -- 99
2021-02-02 03:00:00 10.9 0 Calma 3 Nordeste 1 -- -- 99
2021-02-02 02:00:00 10.8 0 Calma 4 Este 0.2 -- -- 99
2021-02-02 01:00:00 10.6 3 Este 6 Nordeste 0.4 -- -- 99
2021-02-02 00:00:00 10.8 3 Este 6 Este 0.4 -- -- 97
2021-02-01 23:00:00 11.1 0 Calma 6 Nordeste 0 -- -- 93
2021-02-01 22:00:00 11.1 0 Calma 5 Este 0 -- -- 91
2021-02-01 21:00:00 11.2 3 Sudeste 6 Sudeste 0 -- -- 89
2021-02-01 20:00:00 11.2 2 Este 14 Oeste 0 -- -- 85
2021-02-01 19:00:00 12.8 6 Sudoeste 20 Oeste 0 -- -- 77
2021-02-01 18:00:00 14.2 12 Sudoeste 22 Sudoeste 0 -- -- 72
2021-02-01 17:00:00 14.8 9 Sudoeste 24 Sudoeste 0 -- -- 69
2021-02-01 16:00:00 15.7 9 Sudoeste 22 Sudoeste 0 -- -- 66
2021-02-01 15:00:00 14.6 10 Sudoeste 19 Oeste 0 -- -- 70
2021-02-01 14:00:00 13.6 2 Sur 11 Sur 0 -- -- 75
2021-02-01 13:00:00 13.3 4 Sur 14 Sudoeste 0 -- -- 77
2021-02-01 12:00:00 12.5 4 Sur 10 Sur 0 -- -- 81
2021-02-01 11:00:00 11.7 4 Este 6 Sudeste 0 -- -- 85
2021-02-01 10:00:00 8.7 3 Sudoeste 7 Noroeste 0 -- -- 96
2021-02-01 09:00:00 5.2 3 Este 10 Norte 0 -- -- 97
2021-02-01 08:00:00 5.1 4 Norte 10 Norte 0 -- -- 98
2021-02-01 07:00:00 7.3 7 Noroeste 12 Norte 0 -- -- 93
2021-02-01 06:00:00 6.4 9 Norte 13 Norte 0 -- -- 96
2021-02-01 05:00:00 7.1 4 Norte 10 Norte 0 -- -- 95
2021-02-01 04:00:00 7.2 4 Nordeste 10 Norte 0 -- -- 95
2021-02-01 03:00:00 7.5 2 Nordeste 11 Norte 0 -- -- 94
2021-02-01 02:00:00 8.4 5 Norte 12 Noroeste 0 -- -- 96
2021-02-01 01:00:00 9.8 6 Oeste 13 Noroeste 0 -- -- 92
2021-02-01 00:00:00 9 0 Calma 8 Norte 0 -- -- 95
2021-01-31 23:00:00 9.6 2 Este 10 Norte 0 -- -- 94
2021-01-31 22:00:00 9.6 6 Norte 9 Norte 0 -- -- 94
2021-01-31 21:00:00 10.5 6 Norte 13 Norte 0 -- -- 90
2021-01-31 20:00:00 12.6 4 Sur 12 Oeste 0 -- -- 88
2021-01-31 19:00:00 14.3 3 Oeste 12 Nordeste 0 -- -- 89
2021-01-31 18:00:00 14.9 4 Nordeste 8 Sudeste 0 -- -- 90
2021-01-31 17:00:00 14.5 5 Nordeste 8 Nordeste 0 -- -- 91
2021-01-31 16:00:00 13.1 3 Sudeste 9 Sudeste 0 -- -- 95
2021-01-31 15:00:00 12 2 Sur 5 Este 0 -- -- 96
2021-01-31 14:00:00 10.9 3 Nordeste 6 Norte 0 -- -- 97
2021-01-31 13:00:00 10.3 0 Calma 4 Este 0.4 -- -- 97
2021-01-31 12:00:00 9.6 0 Calma 3 Nordeste 0.4 -- -- 97
2021-01-31 11:00:00 8.8 2 Este 4 Este 0.2 -- -- 96
2021-01-31 10:00:00 8.5 4 Norte 10 Nordeste 0 -- -- 94
2021-01-31 09:00:00 8.2 2 Norte 7 Sudoeste 0 -- -- 92
2021-01-31 08:00:00 8.1 5 Norte 8 Noroeste 0 -- -- 90
2021-01-31 07:00:00 7.7 3 Nordeste 6 Norte 0 -- -- 91
2021-01-31 06:00:00 7.7 5 Norte 7 Norte 0 -- -- 90
2021-01-31 05:00:00 7.3 3 Norte 9 Norte 0 -- -- 89
2021-01-31 04:00:00 6.8 2 Nordeste 10 Norte 0 -- -- 90
2021-01-31 03:00:00 6 9 Norte 12 Norte 0 -- -- 89
2021-01-31 02:00:00 6.6 4 Norte 10 Norte 0 -- -- 84
2021-01-31 01:00:00 7.9 4 Sur 16 Noroeste 0 -- -- 78
2021-01-31 00:00:00 9.3 5 Noroeste 26 Noroeste 0 -- -- 71
2021-01-30 23:00:00 8.6 6 Oeste 22 Oeste 0 -- -- 76
2021-01-30 22:00:00 7.4 4 Oeste 8 Oeste 0 -- -- 85
2021-01-30 21:00:00 8.7 5 Noroeste 14 Noroeste 0 -- -- 79
2021-01-30 20:00:00 9.7 8 Oeste 26 Sur 0 -- -- 74
2021-01-30 19:00:00 10.2 8 Sur 33 Sudoeste 0 -- -- 75
2021-01-30 18:00:00 11.9 17 Oeste 35 Oeste 0 -- -- 69
2021-01-30 17:00:00 13.1 9 Oeste 35 Oeste 0 -- -- 57
2021-01-30 16:00:00 12.1 8 Oeste 40 Oeste 0 -- -- 74
2021-01-30 15:00:00 12.2 19 Sudoeste 40 Oeste 0 -- -- 66
2021-01-30 14:00:00 14.3 12 Oeste 33 Oeste 0 -- -- 56
2021-01-30 13:00:00 13.5 14 Oeste 27 Sudoeste 0 -- -- 57
2021-01-30 12:00:00 12.5 7 Sudoeste 19 Sudoeste 0 -- -- 70
2021-01-30 11:00:00 10.3 5 Nordeste 8 Nordeste 0 -- -- 89
2021-01-30 10:00:00 7.5 3 Norte 7 Norte 0 -- -- 97
2021-01-30 09:00:00 6.9 3 Noroeste 9 Norte 0 -- -- 98
2021-01-30 08:00:00 7.4 4 Norte 12 Oeste 0 -- -- 96
2021-01-30 07:00:00 9.3 5 Sudoeste 13 Sudoeste 0 -- -- 95
2021-01-30 06:00:00 10.2 6 Oeste 20 Sudoeste 0 -- -- 98
2021-01-30 05:00:00 10.3 4 Sudoeste 8 Oeste 0.2 -- -- 100
2021-01-30 04:00:00 10.2 0 Calma 12 Sudoeste 3.2 -- -- 100
2021-01-30 03:00:00 10.2 7 Sudoeste 17 Sudoeste 1.2 -- -- 100
2021-01-30 02:00:00 10.1 5 Sur 25 Sur 0.2 -- -- 100
2021-01-30 01:00:00 10.2 11 Sudoeste 28 Sudoeste 0.2 -- -- 100
2021-01-30 00:00:00 10.3 10 Sur 19 Sur 0.2 -- -- 100